Time;durP1;ratioP1;P1;durP2;ratioP2;P2;SDS_P1;SDS_P2;PMS_P1;PMS_P2;Temp;Humidity;BMP_temperature;BMP_pressure;BME280_temperature;BME280_humidity;BME280_pressure;Samples;Min_cycle;Max_cycle;Signal;HPM_P1;HPM_P2
2021/11/27 14:31:09;;;;;;;58.13;18.73;;;;;;;;;;5065218;28;20509;-74
2021/11/27 14:33:38;;;;;;;51.05;19.38;;;;;;;;;;5059228;28;20088;-74
2021/11/27 14:36:11;;;;;;;54.03;19.92;;;;;;;;;;5080638;28;20048;-74
2021/11/27 14:38:40;;;;;;;56.95;19.17;;;;;;;;;;5062668;28;20127;-74
2021/11/27 14:41:17;;;;;;;65.38;21.02;;;;;;;;;;5074330;28;20137;-74
2021/11/27 14:43:49;;;;;;;61.25;21.25;;;;;;;;;;5070410;28;20080;-74
2021/11/27 14:46:35;;;;;;;55.95;21.02;;;;;;;;;;5062425;28;20076;-75
2021/11/27 14:49:24;;;;;;;64.68;25.02;;;;;;;;;;5063127;28;20568;-74
2021/11/27 14:52:12;;;;;;;64.20;23.27;;;;;;;;;;5063713;28;20128;-74
2021/11/27 14:54:41;;;;;;;57.60;22.42;;;;;;;;;;5056357;28;20128;-74
2021/11/27 14:57:10;;;;;;;60.72;23.40;;;;;;;;;;5063720;28;20044;-74
2021/11/27 14:59:46;;;;;;;67.63;24.65;;;;;;;;;;5061252;28;20102;-74
2021/11/27 15:02:14;;;;;;;62.28;22.58;;;;;;;;;;5061630;28;20167;-74
2021/11/27 15:04:41;;;;;;;68.18;23.58;;;;;;;;;;5061816;28;20396;-74
2021/11/27 15:07:09;;;;;;;69.18;24.63;;;;;;;;;;5063073;28;20063;-74
2021/11/27 15:09:37;;;;;;;56.28;21.20;;;;;;;;;;5067102;23;20119;-74
2021/11/27 15:12:05;;;;;;;65.93;21.95;;;;;;;;;;5035172;28;20841;-74
2021/11/27 15:14:34;;;;;;;64.65;23.08;;;;;;;;;;5038478;28;20140;-74
2021/11/27 15:17:02;;;;;;;65.32;24.42;;;;;;;;;;5023855;28;20115;-74
2021/11/27 15:19:29;;;;;;;55.90;21.50;;;;;;;;;;5036449;28;20472;-74
2021/11/27 15:21:56;;;;;;;70.38;23.65;;;;;;;;;;5042542;28;20160;-76
2021/11/27 15:26:51;;;;;;;54.38;23.33;;;;;;;;;;5004175;28;20473;-83
2021/11/27 15:29:20;;;;;;;55.70;23.00;;;;;;;;;;4996193;28;20043;-81
2021/11/27 15:31:48;;;;;;;61.97;23.50;;;;;;;;;;4996922;28;20046;-74
2021/11/27 15:34:16;;;;;;;68.28;24.60;;;;;;;;;;5001004;28;20053;-75
2021/11/27 15:36:46;;;;;;;62.38;25.13;;;;;;;;;;4983503;28;20101;-75
2021/11/27 15:39:13;;;;;;;64.30;22.30;;;;;;;;;;4981417;28;20053;-74
2021/11/27 15:41:41;;;;;;;61.33;22.70;;;;;;;;;;4993341;28;20137;-74
2021/11/27 15:44:10;;;;;;;69.40;24.70;;;;;;;;;;4972095;28;20620;-74
2021/11/27 15:46:38;;;;;;;64.15;22.95;;;;;;;;;;4973151;28;20656;-74
2021/11/27 15:49:07;;;;;;;66.40;21.27;;;;;;;;;;4971816;28;20046;-74
2021/11/27 15:51:39;;;;;;;63.55;23.73;;;;;;;;;;4992631;28;20658;-81
2021/11/27 15:54:07;;;;;;;69.35;25.00;;;;;;;;;;4995092;28;20138;-81
2021/11/27 15:56:36;;;;;;;61.55;22.67;;;;;;;;;;4994059;28;20050;-81
2021/11/27 15:59:04;;;;;;;57.75;21.52;;;;;;;;;;4991577;28;20149;-80
2021/11/27 16:01:32;;;;;;;61.92;23.85;;;;;;;;;;4989682;28;20049;-79
2021/11/27 16:04:00;;;;;;;66.00;24.73;;;;;;;;;;5000209;28;20186;-81
2021/11/27 16:06:32;;;;;;;68.35;23.33;;;;;;;;;;4980581;28;20058;-82
2021/11/27 16:09:00;;;;;;;58.65;23.85;;;;;;;;;;4991077;28;20054;-82
2021/11/27 16:11:27;;;;;;;56.40;21.77;;;;;;;;;;4973910;28;20052;-84
2021/11/27 16:13:54;;;;;;;62.33;22.45;;;;;;;;;;4993840;28;20062;-82
2021/11/27 16:16:24;;;;;;;60.38;21.17;;;;;;;;;;4992195;28;20813;-83
2021/11/27 16:18:51;;;;;;;62.20;22.17;;;;;;;;;;4974974;28;20090;-86
2021/11/27 16:21:19;;;;;;;64.93;22.42;;;;;;;;;;4992634;28;20121;-85
2021/11/27 16:23:47;;;;;;;57.83;21.70;;;;;;;;;;4976837;28;20042;-84
2021/11/27 16:26:14;;;;;;;51.60;21.10;;;;;;;;;;4991498;28;20050;-83
2021/11/27 16:28:44;;;;;;;60.80;21.92;;;;;;;;;;4974741;28;20681;-85
2021/11/27 16:31:12;;;;;;;68.97;22.45;;;;;;;;;;4992798;28;20058;-84
2021/11/27 16:33:42;;;;;;;61.92;22.42;;;;;;;;;;4994155;28;20061;-86
2021/11/27 16:36:11;;;;;;;65.50;22.65;;;;;;;;;;4994092;28;20097;-85
2021/11/27 16:38:39;;;;;;;67.75;23.13;;;;;;;;;;4975466;28;20185;-85
2021/11/27 16:41:10;;;;;;;61.97;22.45;;;;;;;;;;4993359;28;20070;-84
2021/11/27 16:43:38;;;;;;;55.33;22.08;;;3.70;99.90;;;;;;4974522;28;20126;-84
2021/11/27 16:46:09;;;;;;;65.95;23.70;;;3.70;99.90;;;;;;4993934;28;20097;-85
2021/11/27 16:48:39;;;;;;;69.63;23.45;;;3.60;99.90;;;;;;4994014;28;20446;-84
2021/11/27 16:51:10;;;;;;;64.57;21.20;;;3.60;99.90;;;;;;4976723;28;20470;-84
2021/11/27 16:53:37;;;;;;;72.00;26.20;;;3.60;99.90;;;;;;4972553;28;20490;-85
2021/11/27 16:56:04;;;;;;;70.43;23.25;;;3.60;99.90;;;;;;4993747;28;20051;-86
2021/11/27 16:58:33;;;;;;;61.55;22.63;;;3.60;99.90;;;;;;4979205;28;20113;-76
2021/11/27 17:01:00;;;;;;;70.28;24.23;;;3.50;99.90;;;;;;4971344;28;20138;-75
2021/11/27 17:03:27;;;;;;;64.93;23.95;;;3.60;99.90;;;;;;4973367;28;20101;-75
2021/11/27 17:05:54;;;;;;;60.60;23.38;;;3.50;99.90;;;;;;4987614;28;20051;-76
2021/11/27 17:08:27;;;;;;;65.82;24.35;;;3.40;99.90;;;;;;4994620;28;20050;-75
2021/11/27 17:11:01;;;;;;;65.00;23.55;;;3.40;99.90;;;;;;4961736;28;20061;-76
2021/11/27 17:13:29;;;;;;;63.77;24.23;;;3.40;99.90;;;;;;4970620;28;20061;-75
2021/11/27 17:15:58;;;;;;;62.75;23.67;;;3.40;99.90;;;;;;4988160;28;20050;-74
2021/11/27 17:18:28;;;;;;;63.92;23.33;;;3.40;99.90;;;;;;4968489;28;20058;-75
2021/11/27 17:20:58;;;;;;;71.57;24.00;;;3.30;99.90;;;;;;4971325;28;20042;-75
2021/11/27 17:23:39;;;;;;;64.28;23.52;;;3.30;99.90;;;;;;4980663;28;20054;-85
2021/11/27 17:26:08;;;;;;;55.67;20.70;;;3.20;99.90;;;;;;4988095;28;20134;-86
2021/11/27 17:28:47;;;;;;;;;;;;;;;;;;;;;
2021/11/27 17:31:17;;;;;;;60.97;21.55;;;3.20;99.90;;;;;;4983336;28;20050;-85
2021/11/27 17:33:56;;;;;;;63.13;22.58;;;3.10;99.90;;;;;;4991873;28;20053;-85
2021/11/27 17:36:33;;;;;;;61.87;20.33;;;3.40;99.90;;;;;;4987799;28;20117;-85
2021/11/27 17:39:04;;;;;;;56.35;22.05;;;3.10;99.90;;;;;;4972421;28;20723;-76
2021/11/27 17:41:43;;;;;;;67.50;23.98;;;3.00;99.90;;;;;;4983819;28;20151;-85
2021/11/27 17:44:45;;;;;;;59.55;21.42;;;3.00;99.90;;;;;;4974234;28;20050;-75
2021/11/27 17:47:23;;;;;;;59.70;21.85;;;3.00;99.90;;;;;;4986434;28;20057;-75
2021/11/27 17:49:51;;;;;;;57.55;21.85;;;3.00;99.90;;;;;;4986039;28;20116;-85
2021/11/27 17:52:20;;;;;;;64.53;22.15;;;2.80;99.90;;;;;;5000754;28;20666;-84
2021/11/27 17:54:47;;;;;;;62.90;20.77;;;2.70;99.90;;;;;;4974844;28;20058;-84
2021/11/27 17:57:15;;;;;;;61.28;21.63;;;2.70;99.90;;;;;;4992977;28;20046;-83
2021/11/27 17:59:48;;;;;;;67.93;23.55;;;2.70;99.90;;;;;;4993040;28;20765;-83
2021/11/27 18:02:25;;;;;;;58.40;21.42;;;2.70;99.90;;;;;;4992448;28;20129;-83
2021/11/27 18:04:54;;;;;;;61.33;23.20;;;2.70;99.90;;;;;;4988598;28;20149;-84
2021/11/27 18:07:21;;;;;;;73.43;24.10;;;2.70;99.90;;;;;;4992501;28;20046;-83
2021/11/27 18:09:47;;;;;;;56.85;22.75;;;2.60;99.90;;;;;;4992771;28;20093;-84
2021/11/27 18:12:14;;;;;;;62.95;23.95;;;2.50;99.90;;;;;;4992242;28;20092;-83
2021/11/27 18:14:42;;;;;;;82.03;27.33;;;2.50;99.90;;;;;;4989109;28;20460;-76
2021/11/27 18:17:10;;;;;;;65.07;24.50;;;2.50;99.90;;;;;;4988689;28;20065;-76
2021/11/27 18:19:37;;;;;;;78.55;28.02;;;2.50;99.90;;;;;;4970550;28;20057;-76
2021/11/27 18:22:04;;;;;;;75.95;26.13;;;2.40;99.90;;;;;;4982753;22;20133;-86
2021/11/27 18:24:38;;;;;;;68.03;26.40;;;2.40;99.90;;;;;;5049124;28;20073;-85
2021/11/27 18:29:39;;;;;;;68.32;25.17;;;2.50;99.90;;;;;;5031787;28;20072;-85
2021/11/27 18:32:18;;;;;;;84.88;25.25;;;2.30;99.90;;;;;;5050963;28;20558;-86
2021/11/27 18:34:46;;;;;;;69.43;22.92;;;2.40;99.90;;;;;;5061326;28;20102;-85
2021/11/27 18:37:17;;;;;;;69.60;24.80;;;2.40;99.90;;;;;;5027112;28;20076;-85
2021/11/27 18:39:45;;;;;;;70.53;24.30;;;2.40;99.90;;;;;;5028172;28;20154;-85
2021/11/27 18:42:15;;;;;;;81.80;26.90;;;2.40;99.90;;;;;;5033732;28;20079;-85
2021/11/27 18:44:44;;;;;;;77.70;26.77;;;2.30;99.90;;;;;;5028631;28;20482;-86
2021/11/27 18:47:12;;;;;;;78.13;27.83;;;2.40;99.90;;;;;;5022150;28;20068;-86
2021/11/27 18:49:41;;;;;;;75.05;25.88;;;2.40;99.90;;;;;;5041953;28;20552;-85
2021/11/27 18:52:11;;;;;;;73.55;26.35;;;2.40;99.90;;;;;;5045085;28;20073;-85
2021/11/27 18:54:42;;;;;;;72.28;26.08;;;2.30;99.90;;;;;;5034624;28;20072;-85
2021/11/27 18:57:10;;;;;;;74.20;24.55;;;2.30;99.90;;;;;;5031855;28;20041;-85
2021/11/27 18:59:41;;;;;;;81.53;27.15;;;2.40;99.90;;;;;;5031738;28;20057;-85
2021/11/27 19:02:10;;;;;;;86.28;28.45;;;2.40;99.90;;;;;;5037858;28;20064;-85
2021/11/27 19:04:47;;;;;;;76.57;25.98;;;2.40;99.90;;;;;;5046744;28;20037;-85
2021/11/27 19:07:15;;;;;;;81.68;27.15;;;2.30;99.90;;;;;;5027574;28;20045;-86
2021/11/27 19:09:49;;;;;;;75.03;26.13;;;2.30;99.90;;;;;;5022960;28;20038;-86
2021/11/27 19:12:17;;;;;;;67.25;25.40;;;2.30;99.90;;;;;;5035859;28;20045;-85
2021/11/27 19:14:47;;;;;;;81.65;27.17;;;2.30;99.90;;;;;;5042942;28;20044;-85
2021/11/27 19:17:19;;;;;;;84.18;27.20;;;2.30;99.90;;;;;;5019046;28;20088;-86
2021/11/27 19:19:45;;;;;;;78.85;28.20;;;2.30;99.90;;;;;;5028530;28;20096;-85
2021/11/27 19:22:12;;;;;;;82.45;28.20;;;2.30;99.90;;;;;;5039563;28;20080;-85
2021/11/27 19:24:49;;;;;;;78.15;26.42;;;2.20;99.90;;;;;;5062116;28;20629;-86
2021/11/27 19:27:18;;;;;;;77.35;27.45;;;2.20;99.90;;;;;;5036106;28;20077;-86
2021/11/27 19:29:48;;;;;;;81.00;27.15;;;2.20;99.90;;;;;;5056448;28;20090;-86
2021/11/27 19:32:21;;;;;;;76.40;26.48;;;2.20;99.90;;;;;;5047023;28;20053;-86
2021/11/27 19:34:51;;;;;;;73.40;27.00;;;2.50;99.90;;;;;;5043762;28;20056;-86
2021/11/27 19:37:19;;;;;;;76.45;27.33;;;2.40;99.90;;;;;;5047365;28;20076;-86
2021/11/27 19:39:46;;;;;;;66.25;24.13;;;2.30;99.90;;;;;;5028217;28;20131;-86
2021/11/27 19:42:16;;;;;;;70.43;23.90;;;2.30;99.90;;;;;;5046711;28;20092;-86
2021/11/27 19:44:47;;;;;;;67.80;23.90;;;2.30;99.90;;;;;;5019695;28;20065;-86
2021/11/27 19:47:16;;;;;;;66.93;22.67;;;2.30;99.90;;;;;;5033796;28;20045;-86
2021/11/27 19:49:43;;;;;;;70.97;23.42;;;2.30;99.90;;;;;;5041436;28;20469;-86
2021/11/27 19:52:12;;;;;;;75.70;24.25;;;2.20;99.90;;;;;;5029843;28;20065;-86
2021/11/27 19:54:45;;;;;;;74.10;25.42;;;2.30;99.90;;;;;;5031590;28;20049;-85
2021/11/27 19:57:13;;;;;;;77.53;23.83;;;2.20;99.90;;;;;;5031269;28;20088;-87
2021/11/27 19:59:41;;;;;;;70.43;24.70;;;2.30;99.90;;;;;;5027875;28;20057;-86
2021/11/27 20:02:10;;;;;;;76.15;25.52;;;2.20;99.90;;;;;;5037974;28;20055;-84
2021/11/27 20:04:37;;;;;;;74.78;25.17;;;2.30;99.90;;;;;;5030498;28;20045;-77
2021/11/27 20:07:09;;;;;;;73.18;24.70;;;2.30;99.90;;;;;;5018246;28;20057;-76
2021/11/27 20:09:36;;;;;;;88.78;30.90;;;2.30;99.90;;;;;;5041965;28;20049;-77
2021/11/27 20:12:04;;;;;;;80.15;26.83;;;2.30;99.90;;;;;;5023933;28;20057;-76
2021/11/27 20:14:31;;;;;;;91.13;29.52;;;2.40;99.90;;;;;;5026761;28;20077;-76
2021/11/27 20:16:58;;;;;;;101.65;36.53;;;2.40;99.90;;;;;;5028531;28;20136;-76
2021/11/27 20:19:26;;;;;;;101.65;35.38;;;2.40;99.90;;;;;;5024151;28;20049;-76
2021/11/27 20:21:53;;;;;;;76.18;25.23;;;2.40;99.90;;;;;;5044961;28;20139;-76
2021/11/27 20:24:21;;;;;;;70.70;24.98;;;2.50;99.90;;;;;;5030109;28;20745;-83
2021/11/27 20:26:48;;;;;;;78.63;26.67;;;2.50;99.90;;;;;;5044689;28;20076;-82
2021/11/27 20:29:15;;;;;;;66.82;22.77;;;2.50;99.90;;;;;;5030281;28;20045;-83
2021/11/27 20:31:42;;;;;;;62.90;22.45;;;2.50;99.90;;;;;;5029345;28;20478;-76
2021/11/27 20:34:09;;;;;;;77.65;24.63;;;2.50;99.90;;;;;;5024520;28;20049;-76
2021/11/27 20:36:37;;;;;;;65.65;22.10;;;2.50;99.90;;;;;;5025313;28;20100;-76
2021/11/27 20:39:04;;;;;;;66.18;22.90;;;2.50;99.90;;;;;;5019552;28;20221;-76
2021/11/27 20:41:32;;;;;;;78.57;25.20;;;2.50;99.90;;;;;;5036939;28;20091;-76
2021/11/27 20:44:01;;;;;;;75.43;25.35;;;2.40;99.90;;;;;;5021159;28;20081;-76
2021/11/27 20:46:29;;;;;;;76.57;23.30;;;2.40;99.90;;;;;;5038252;28;20136;-75
2021/11/27 20:48:57;;;;;;;76.40;24.27;;;2.40;99.90;;;;;;5020571;28;20049;-75
2021/11/27 20:51:24;;;;;;;70.53;26.42;;;2.40;99.90;;;;;;5035522;28;20049;-75
2021/11/27 20:53:51;;;;;;;71.13;23.58;;;2.50;99.90;;;;;;5037279;28;20053;-82
2021/11/27 20:56:18;;;;;;;69.38;23.27;;;2.50;99.90;;;;;;5043944;28;20091;-82
2021/11/27 20:58:45;;;;;;;73.80;24.08;;;2.50;99.90;;;;;;5051228;28;20465;-82
2021/11/27 21:01:12;;;;;;;75.22;23.08;;;2.50;99.90;;;;;;5029849;28;20095;-82
2021/11/27 21:03:42;;;;;;;78.57;24.02;;;2.50;99.90;;;;;;5061001;28;20090;-82
2021/11/27 21:06:13;;;;;;;85.88;25.15;;;2.50;99.90;;;;;;5073138;28;20465;-81
2021/11/27 21:08:41;;;;;;;77.57;26.98;;;2.50;99.90;;;;;;5063068;28;20383;-74
2021/11/27 21:11:09;;;;;;;73.78;23.98;;;2.50;99.90;;;;;;5046713;28;20159;-74
2021/11/27 21:13:36;;;;;;;82.10;25.40;;;2.50;99.90;;;;;;5041771;28;20050;-74
2021/11/27 21:16:05;;;;;;;76.07;25.08;;;2.60;99.90;;;;;;5035737;28;20056;-74
2021/11/27 21:18:34;;;;;;;66.40;24.08;;;2.60;99.90;;;;;;5026419;28;20072;-74
2021/11/27 21:24:33;;;;;;;78.93;26.30;;;2.60;99.90;;;;;;4999960;28;20050;-74
2021/11/27 21:27:02;;;;;;;82.40;25.90;;;2.70;99.90;;;;;;5006332;28;20058;-74
2021/11/27 21:29:29;;;;;;;80.85;23.60;;;2.60;99.90;;;;;;4978194;28;20137;-74
2021/11/27 21:31:56;;;;;;;71.15;24.30;;;2.60;99.90;;;;;;5003087;28;20518;-74
2021/11/27 21:34:23;;;;;;;83.72;26.17;;;2.60;99.90;;;;;;5013045;28;20054;-74
2021/11/27 21:36:52;;;;;;;72.85;24.35;;;2.60;99.90;;;;;;4989159;28;20064;-74
2021/11/27 21:39:19;;;;;;;76.63;26.70;;;2.60;99.90;;;;;;4988030;28;20104;-74
2021/11/27 21:41:46;;;;;;;83.15;25.75;;;2.60;99.90;;;;;;5006263;28;20566;-74
2021/11/27 21:44:14;;;;;;;69.30;22.67;;;2.60;99.90;;;;;;4994051;28;20129;-74
2021/11/27 21:46:40;;;;;;;78.50;24.45;;;2.60;99.90;;;;;;4969722;28;20809;-74
2021/11/27 21:49:07;;;;;;;67.68;24.10;;;2.50;99.90;;;;;;4980272;28;20092;-74
2021/11/27 21:51:34;;;;;;;73.72;23.88;;;2.60;99.90;;;;;;4989037;28;20126;-74
2021/11/27 21:54:02;;;;;;;75.13;25.25;;;2.60;99.90;;;;;;5001586;28;20125;-74
2021/11/27 21:56:29;;;;;;;68.80;23.10;;;2.60;99.90;;;;;;5015454;28;20061;-74
2021/11/27 21:58:56;;;;;;;65.65;22.15;;;2.60;99.90;;;;;;4997667;28;20062;-74
2021/11/27 22:01:23;;;;;;;80.10;25.35;;;2.60;99.90;;;;;;4982521;28;20046;-74
2021/11/27 22:03:51;;;;;;;68.18;23.45;;;2.60;99.90;;;;;;5016200;28;20057;-74
2021/11/27 22:06:18;;;;;;;75.05;25.02;;;2.70;99.90;;;;;;5025821;28;20054;-74
2021/11/27 22:08:45;;;;;;;82.28;23.70;;;2.70;99.90;;;;;;4999224;28;20049;-74
2021/11/27 22:11:12;;;;;;;77.30;24.48;;;2.80;99.90;;;;;;5005908;28;20085;-75
2021/11/27 22:13:38;;;;;;;75.05;24.20;;;2.70;99.90;;;;;;5000105;28;20160;-74
2021/11/27 22:16:05;;;;;;;75.72;24.60;;;2.80;99.90;;;;;;4986939;28;20145;-74
2021/11/27 22:18:33;;;;;;;70.25;23.73;;;2.80;99.90;;;;;;4969178;28;20054;-75
2021/11/27 22:21:00;;;;;;;78.10;24.85;;;2.80;99.90;;;;;;4968845;28;20054;-74
2021/11/27 22:23:27;;;;;;;72.38;24.65;;;2.80;99.90;;;;;;4997947;28;20490;-74
2021/11/27 22:25:54;;;;;;;68.15;24.10;;;2.80;99.90;;;;;;5018167;28;20049;-75
2021/11/27 22:28:24;;;;;;;77.20;24.63;;;2.80;99.90;;;;;;4989716;28;20623;-75
2021/11/27 22:30:54;;;;;;;73.28;23.63;;;2.80;99.90;;;;;;4988331;28;20081;-74
2021/11/27 22:33:23;;;;;;;64.45;22.45;;;2.70;99.90;;;;;;5011226;28;20129;-75
2021/11/27 22:35:51;;;;;;;78.10;23.63;;;2.80;99.90;;;;;;4986483;28;20510;-75
2021/11/27 22:38:19;;;;;;;71.28;22.75;;;2.80;99.90;;;;;;4987321;28;20050;-74
2021/11/27 22:40:46;;;;;;;75.95;23.63;;;2.80;99.90;;;;;;5002985;28;20129;-74
2021/11/27 22:43:13;;;;;;;69.35;23.08;;;2.80;99.90;;;;;;5005397;28;20581;-74
2021/11/27 22:45:40;;;;;;;76.35;23.70;;;2.80;99.90;;;;;;4988411;28;20837;-74
2021/11/27 22:48:08;;;;;;;77.00;24.25;;;2.90;99.90;;;;;;4996997;28;20165;-74
2021/11/27 22:50:35;;;;;;;70.72;23.33;;;2.90;99.90;;;;;;4987564;28;20085;-74
2021/11/27 22:53:02;;;;;;;74.05;23.75;;;2.90;99.90;;;;;;4982682;28;20212;-74
2021/11/27 22:55:29;;;;;;;75.85;24.05;;;3.00;99.90;;;;;;5006407;28;20110;-74
2021/11/27 22:57:56;;;;;;;75.88;23.58;;;3.00;99.90;;;;;;5009868;28;20085;-75
2021/11/27 23:00:32;;;;;;;72.32;23.83;;;3.00;99.90;;;;;;5005092;28;20133;-75
2021/11/27 23:03:00;;;;;;;72.03;22.88;;;3.10;99.90;;;;;;5012868;28;20053;-75
2021/11/27 23:05:28;;;;;;;77.78;22.80;;;3.00;99.90;;;;;;4974046;28;20086;-75
2021/11/27 23:07:55;;;;;;;75.78;23.27;;;3.00;99.90;;;;;;4989341;28;20089;-75
2021/11/27 23:10:22;;;;;;;70.22;22.38;;;3.00;99.90;;;;;;5007442;28;20149;-75
2021/11/27 23:12:50;;;;;;;68.82;21.30;;;3.10;99.90;;;;;;5005801;28;20050;-75
2021/11/27 23:15:16;;;;;;;72.00;22.48;;;3.10;99.90;;;;;;5008078;28;20081;-75
2021/11/27 23:17:43;;;;;;;66.15;21.30;;;3.20;99.90;;;;;;4998366;28;20056;-75
2021/11/27 23:22:45;;;;;;;64.28;21.67;;;3.20;99.90;;;;;;4989018;28;20133;-75
2021/11/27 23:25:11;;;;;;;73.45;21.65;;;3.20;99.90;;;;;;5005488;28;20070;-75
2021/11/27 23:27:39;;;;;;;66.43;21.58;;;3.30;99.90;;;;;;5009114;28;20085;-75
2021/11/27 23:30:08;;;;;;;65.18;21.40;;;3.30;99.90;;;;;;4994213;28;20136;-75
2021/11/27 23:32:34;;;;;;;64.97;20.75;;;3.30;99.90;;;;;;5008592;28;20058;-75
2021/11/27 23:35:01;;;;;;;60.25;20.75;;;3.30;99.90;;;;;;5009989;28;20068;-75
2021/11/27 23:37:28;;;;;;;58.67;20.17;;;3.30;99.90;;;;;;5009024;28;20138;-75
2021/11/27 23:39:55;;;;;;;59.63;19.52;;;3.40;99.90;;;;;;4993442;28;20157;-75
2021/11/27 23:42:23;;;;;;;61.60;19.90;;;3.40;99.90;;;;;;5007579;28;20137;-75
2021/11/27 23:44:50;;;;;;;57.40;20.00;;;3.40;99.90;;;;;;4979528;28;20074;-75
2021/11/27 23:47:17;;;;;;;64.50;21.75;;;3.40;99.90;;;;;;4998820;28;20077;-75
2021/11/27 23:49:44;;;;;;;58.10;19.65;;;3.50;99.90;;;;;;4990394;28;20053;-75
2021/11/27 23:52:11;;;;;;;60.05;19.52;;;3.50;99.90;;;;;;5008399;28;20384;-75
2021/11/27 23:54:38;;;;;;;62.00;20.20;;;3.50;99.90;;;;;;5005766;28;20659;-75
2021/11/27 23:57:08;;;;;;;68.63;21.52;;;3.50;99.90;;;;;;5008361;28;20132;-75
2021/11/27 23:59:43;;;;;;;55.92;20.73;;;3.50;99.90;;;;;;4978717;28;20077;-75
